createdAt,value
2022-09-12T00:05:04.350Z,12.00
2022-09-12T00:11:10.803Z,11.90
2022-09-12T00:17:12.746Z,11.90
2022-09-12T00:23:15.020Z,11.90
2022-09-12T00:29:20.876Z,11.90
2022-09-12T00:35:22.754Z,11.80
2022-09-12T00:41:28.770Z,11.80
2022-09-12T00:47:32.431Z,11.70
2022-09-12T00:53:34.444Z,11.60
2022-09-12T01:00:05.945Z,11.40
2022-09-12T01:06:40.007Z,11.20
2022-09-12T01:12:43.594Z,11.00
2022-09-12T01:19:26.200Z,11.00
2022-09-12T01:26:00.439Z,10.80
2022-09-12T01:32:16.009Z,10.80
2022-09-12T01:38:53.148Z,10.70
2022-09-12T01:45:53.204Z,10.50
2022-09-12T01:52:01.333Z,10.50
2022-09-12T01:58:19.293Z,10.40
2022-09-12T02:04:33.515Z,10.40
2022-09-12T02:11:03.486Z,10.30
2022-09-12T02:17:16.571Z,10.20
2022-09-12T02:23:27.917Z,10.20
2022-09-12T02:29:30.243Z,10.10
2022-09-12T02:35:49.153Z,10.10
2022-09-12T02:41:53.039Z,10.00
2022-09-12T02:48:34.457Z,10.00
2022-09-12T02:54:38.172Z,9.90
2022-09-12T03:01:05.316Z,9.90
2022-09-12T03:07:16.120Z,9.90
2022-09-12T03:13:50.567Z,10.00
2022-09-12T03:26:17.387Z,9.90
2022-09-12T03:32:19.291Z,9.80
2022-09-12T03:38:21.191Z,9.80
2022-09-12T03:44:24.687Z,9.80
2022-09-12T03:50:26.814Z,9.80
2022-09-12T03:56:29.281Z,9.80
2022-09-12T04:02:31.211Z,9.70
2022-09-12T04:08:33.778Z,9.60
2022-09-12T04:14:35.687Z,9.70
2022-09-12T04:20:37.580Z,9.70
2022-09-12T04:26:39.481Z,9.70
2022-09-12T04:32:41.438Z,9.60
2022-09-12T04:38:47.875Z,9.60
2022-09-12T04:44:49.999Z,9.70
2022-09-12T04:50:51.927Z,9.70
2022-09-12T04:56:55.163Z,9.70
2022-09-12T05:02:57.071Z,9.70
2022-09-12T05:09:01.845Z,9.70
2022-09-12T05:15:04.721Z,9.80
2022-09-12T05:21:09.398Z,9.90
2022-09-12T05:27:11.382Z,9.90
2022-09-12T05:33:25.215Z,9.90
2022-09-12T05:39:27.171Z,9.90
2022-09-12T05:45:30.186Z,10.00
2022-09-12T05:51:38.451Z,10.10
2022-09-12T05:57:43.496Z,10.50
2022-09-12T06:03:49.889Z,10.80
2022-09-12T06:16:18.255Z,11.30
2022-09-12T06:22:20.171Z,11.60
2022-09-12T06:28:22.116Z,11.90
2022-09-12T06:34:24.282Z,12.00
2022-09-12T06:40:27.516Z,12.10
2022-09-12T06:46:31.200Z,12.40
2022-09-12T06:52:33.113Z,13.30
2022-09-12T06:58:35.826Z,16.30
2022-09-12T07:04:37.775Z,19.00
2022-09-12T07:10:39.679Z,20.90
2022-09-12T07:22:51.117Z,22.20
2022-09-12T07:28:54.757Z,21.00
2022-09-12T07:34:56.670Z,19.20
2022-09-12T07:40:58.930Z,18.20
2022-09-12T07:47:01.100Z,17.60
2022-09-12T07:53:04.627Z,17.20
2022-09-12T07:59:07.562Z,17.30
2022-09-12T08:05:09.756Z,17.30
2022-09-12T08:11:15.490Z,17.70
2022-09-12T08:17:17.412Z,17.70
2022-09-12T08:29:29.080Z,18.10
2022-09-12T08:43:01.317Z,19.00
2022-09-12T08:49:05.050Z,19.60
2022-09-12T08:55:39.395Z,20.40
2022-09-12T09:01:45.493Z,21.50
2022-09-12T09:08:35.514Z,22.50
2022-09-12T09:14:52.230Z,23.50
2022-09-12T09:21:17.993Z,24.50
2022-09-12T09:27:42.580Z,25.60
2022-09-12T09:33:47.865Z,26.80
2022-09-12T09:40:17.008Z,28.00
2022-09-12T09:46:19.135Z,28.40
2022-09-12T09:52:28.435Z,29.20
2022-09-12T09:58:36.793Z,29.70
2022-09-12T10:04:41.878Z,29.80
2022-09-12T10:10:59.820Z,28.70
2022-09-12T10:17:22.528Z,28.30
2022-09-12T10:23:37.763Z,28.20
2022-09-12T10:29:55.719Z,27.60
2022-09-12T10:35:58.410Z,27.90
2022-09-12T10:42:01.638Z,27.70
2022-09-12T10:48:29.512Z,28.00
2022-09-12T10:54:31.434Z,28.10
2022-09-12T11:00:42.887Z,28.10
2022-09-12T11:07:12.843Z,27.70
2022-09-12T11:13:47.012Z,27.70
2022-09-12T11:20:31.924Z,28.20
2022-09-12T11:26:48.748Z,28.40
2022-09-12T11:33:24.260Z,28.40
2022-09-12T11:39:39.985Z,28.50
2022-09-12T11:45:45.293Z,27.90
2022-09-12T11:52:02.108Z,28.20
2022-09-12T11:58:05.075Z,27.00
2022-09-12T12:04:12.939Z,26.00
2022-09-12T12:10:56.304Z,25.80
2022-09-12T12:16:58.296Z,25.30
2022-09-12T12:23:01.027Z,25.30
2022-09-12T12:29:03.053Z,25.20
2022-09-12T12:35:40.742Z,25.90
2022-09-12T12:41:46.257Z,25.50
2022-09-12T12:47:53.812Z,26.10
2022-09-12T12:53:56.268Z,26.00
2022-09-12T13:00:29.775Z,25.10
2022-09-12T13:06:43.233Z,24.50
2022-09-12T13:12:47.833Z,24.30
2022-09-12T13:18:51.407Z,24.70
2022-09-12T13:24:53.443Z,25.90
2022-09-12T13:31:23.317Z,27.30
2022-09-12T13:37:51.345Z,27.10
2022-09-12T13:43:53.772Z,27.40
2022-09-12T13:49:57.281Z,27.00
2022-09-12T13:56:00.147Z,27.00
2022-09-12T14:02:02.164Z,28.60
2022-09-12T14:08:08.615Z,30.80
2022-09-12T14:14:37.704Z,31.40
2022-09-12T14:20:39.968Z,31.30
2022-09-12T14:26:44.742Z,29.40
2022-09-12T14:33:12.140Z,30.20
2022-09-12T14:39:22.996Z,32.60
2022-09-12T14:45:32.118Z,33.50
2022-09-12T14:51:51.153Z,33.20
2022-09-12T14:58:26.448Z,34.00
2022-09-12T15:04:42.592Z,33.60
2022-09-12T15:10:44.842Z,33.90
2022-09-12T15:16:46.770Z,34.30
2022-09-12T15:22:48.687Z,35.00
2022-09-12T15:28:51.457Z,35.80
2022-09-12T15:34:54.770Z,35.30
2022-09-12T15:40:56.712Z,35.30
2022-09-12T15:47:00.660Z,35.30
2022-09-12T15:53:03.042Z,35.70
2022-09-12T15:59:05.428Z,34.10
2022-09-12T16:05:20.647Z,31.60
2022-09-12T16:11:25.905Z,30.90
2022-09-12T16:17:27.789Z,30.80
2022-09-12T16:23:29.687Z,30.90
2022-09-12T16:29:31.686Z,31.40
2022-09-12T16:35:33.658Z,30.30
2022-09-12T16:41:35.587Z,28.60
2022-09-12T16:47:38.000Z,27.00
2022-09-12T16:53:39.959Z,25.60
2022-09-12T16:59:41.877Z,24.20
2022-09-12T17:05:43.760Z,23.10
2022-09-12T17:11:47.766Z,22.30
2022-09-12T17:17:52.090Z,21.60
2022-09-12T17:23:54.282Z,21.00
2022-09-12T17:29:56.203Z,20.70
2022-09-12T17:36:03.524Z,20.20
2022-09-12T17:42:06.562Z,19.90
2022-09-12T17:48:11.285Z,19.40
2022-09-12T17:54:17.532Z,18.90
2022-09-12T18:00:39.467Z,18.50
2022-09-12T18:06:48.993Z,18.20
2022-09-12T18:12:50.938Z,17.90
2022-09-12T18:18:52.962Z,17.70
2022-09-12T18:24:54.870Z,17.60
2022-09-12T18:30:56.794Z,17.60
2022-09-12T18:36:59.103Z,17.50
2022-09-12T18:43:01.081Z,17.40
2022-09-12T18:49:04.575Z,17.40
2022-09-12T18:55:06.707Z,17.30
2022-09-12T19:01:24.728Z,17.20
2022-09-12T19:07:26.732Z,17.20
2022-09-12T19:13:28.769Z,17.20
2022-09-12T19:19:30.853Z,17.20
2022-09-12T19:25:32.903Z,17.20
2022-09-12T19:31:35.293Z,17.20
2022-09-12T19:37:37.235Z,17.10
2022-09-12T19:43:39.373Z,17.10
2022-09-12T19:49:41.283Z,17.00
2022-09-12T19:55:44.095Z,17.00
2022-09-12T20:01:46.043Z,16.90
2022-09-12T20:07:48.220Z,16.80
2022-09-12T20:13:50.542Z,16.80
2022-09-12T20:19:52.456Z,16.90
2022-09-12T20:25:54.381Z,16.90
2022-09-12T20:31:56.257Z,16.80
2022-09-12T20:37:58.158Z,16.70
2022-09-12T20:44:00.348Z,16.60
2022-09-12T20:50:02.226Z,16.40
2022-09-12T20:56:06.789Z,16.20
2022-09-12T21:02:14.249Z,16.10
2022-09-12T21:08:16.379Z,15.90
2022-09-12T21:14:18.262Z,15.90
2022-09-12T21:20:20.249Z,15.80
2022-09-12T21:26:22.120Z,15.70
2022-09-12T21:32:24.033Z,15.60
2022-09-12T21:38:25.954Z,15.60
2022-09-12T21:44:27.841Z,15.60
2022-09-12T21:50:29.829Z,15.70
2022-09-12T21:56:31.744Z,15.70
2022-09-12T22:02:33.933Z,15.70
2022-09-12T22:08:39.870Z,15.60
2022-09-12T22:14:42.271Z,15.50
2022-09-12T22:20:44.291Z,15.40
2022-09-12T22:26:46.671Z,15.40
2022-09-12T22:32:50.030Z,15.30
2022-09-12T22:38:51.932Z,15.30
2022-09-12T22:44:53.868Z,15.20
2022-09-12T22:50:55.843Z,15.10
2022-09-12T22:56:57.725Z,15.00
2022-09-12T23:02:59.689Z,14.80
2022-09-12T23:09:01.768Z,14.80
2022-09-12T23:15:04.236Z,14.70
2022-09-12T23:21:09.627Z,14.70
2022-09-12T23:27:11.517Z,14.90
2022-09-12T23:33:13.431Z,15.00
2022-09-12T23:39:15.343Z,15.00
2022-09-12T23:45:17.331Z,14.90
2022-09-12T23:51:21.647Z,14.90
2022-09-12T23:57:23.589Z,14.90
